Anmoore, West Virginia
Current Conditions -  °F | °C
As of 5:04 AM on Thursday 23 Oct 2014 (Local Time) from KCKB Reporting Station
Overcast Overcast  
Wind Chill: 42°   Ceiling: 3900
Heat Index: 46°   Visibility: 10mi
Dew Point: 41°   Wind: 8mph
Humidity: 83%   Direction: 290°WNW
Pressure: 30.14"   Gusts: NA
Location:  39.26°N, 80.29°W
Report Text: KCKB 230904Z AUTO 29007KT 10SM SCT032 OVC039 08/05 A3014 RMK AO2 T00780050 TSNO
Loading
Personal Weather Stations






























Interactive Weather Map New forecast layout! Learn more

10-Day Weather Forecast

Advertisements
Track Severe Weather on mobile